sensor_id;sensor_type;location;lat;lon;timestamp;P1;durP1;ratioP1;P2;durP2;ratioP2
44987;SDS011;35735;52.226;21.254;2023-10-13T00:02:26;9.90;;;5.65;;
44987;SDS011;35735;52.226;21.254;2023-10-13T00:07:27;9.20;;;5.78;;
44987;SDS011;35735;52.226;21.254;2023-10-13T00:12:27;9.10;;;5.53;;
44987;SDS011;35735;52.226;21.254;2023-10-13T00:17:28;7.62;;;5.32;;
44987;SDS011;35735;52.226;21.254;2023-10-13T00:22:28;8.60;;;5.18;;
44987;SDS011;35735;52.226;21.254;2023-10-13T00:27:29;9.55;;;5.60;;
44987;SDS011;35735;52.226;21.254;2023-10-13T00:32:29;7.80;;;5.57;;
44987;SDS011;35735;52.226;21.254;2023-10-13T00:37:30;9.20;;;5.00;;
44987;SDS011;35735;52.226;21.254;2023-10-13T00:42:30;7.47;;;4.82;;
44987;SDS011;35735;52.226;21.254;2023-10-13T00:47:31;7.22;;;4.68;;
44987;SDS011;35735;52.226;21.254;2023-10-13T00:52:32;7.25;;;4.15;;
44987;SDS011;35735;52.226;21.254;2023-10-13T00:57:35;8.07;;;4.57;;
44987;SDS011;35735;52.226;21.254;2023-10-13T01:02:36;8.32;;;4.55;;
44987;SDS011;35735;52.226;21.254;2023-10-13T01:07:37;8.48;;;4.80;;
44987;SDS011;35735;52.226;21.254;2023-10-13T01:12:37;8.32;;;4.72;;
44987;SDS011;35735;52.226;21.254;2023-10-13T01:17:38;7.65;;;5.07;;
44987;SDS011;35735;52.226;21.254;2023-10-13T01:22:38;14.32;;;7.03;;
44987;SDS011;35735;52.226;21.254;2023-10-13T01:27:39;9.68;;;5.95;;
44987;SDS011;35735;52.226;21.254;2023-10-13T01:32:40;10.02;;;6.53;;
44987;SDS011;35735;52.226;21.254;2023-10-13T01:37:40;13.65;;;7.12;;
44987;SDS011;35735;52.226;21.254;2023-10-13T01:42:41;10.02;;;6.72;;
44987;SDS011;35735;52.226;21.254;2023-10-13T01:47:42;9.07;;;6.12;;
44987;SDS011;35735;52.226;21.254;2023-10-13T01:52:42;9.07;;;6.55;;
44987;SDS011;35735;52.226;21.254;2023-10-13T01:57:43;12.37;;;7.62;;
44987;SDS011;35735;52.226;21.254;2023-10-13T02:02:43;16.30;;;8.75;;
44987;SDS011;35735;52.226;21.254;2023-10-13T02:07:44;12.68;;;7.47;;
44987;SDS011;35735;52.226;21.254;2023-10-13T02:12:44;12.75;;;7.07;;
44987;SDS011;35735;52.226;21.254;2023-10-13T02:17:45;15.85;;;7.72;;
44987;SDS011;35735;52.226;21.254;2023-10-13T02:22:45;16.10;;;7.93;;
44987;SDS011;35735;52.226;21.254;2023-10-13T02:27:46;15.05;;;8.02;;
44987;SDS011;35735;52.226;21.254;2023-10-13T02:32:46;12.30;;;7.65;;
44987;SDS011;35735;52.226;21.254;2023-10-13T02:37:47;16.35;;;8.02;;
44987;SDS011;35735;52.226;21.254;2023-10-13T02:42:47;19.80;;;9.48;;
44987;SDS011;35735;52.226;21.254;2023-10-13T02:47:48;17.27;;;9.20;;
44987;SDS011;35735;52.226;21.254;2023-10-13T02:52:48;16.12;;;9.80;;
44987;SDS011;35735;52.226;21.254;2023-10-13T02:57:49;14.00;;;9.23;;
44987;SDS011;35735;52.226;21.254;2023-10-13T03:02:50;16.87;;;9.20;;
44987;SDS011;35735;52.226;21.254;2023-10-13T03:07:50;15.05;;;9.82;;
44987;SDS011;35735;52.226;21.254;2023-10-13T03:12:51;14.13;;;9.15;;
44987;SDS011;35735;52.226;21.254;2023-10-13T03:17:51;14.20;;;9.90;;
44987;SDS011;35735;52.226;21.254;2023-10-13T03:22:52;14.95;;;9.85;;
44987;SDS011;35735;52.226;21.254;2023-10-13T03:27:53;13.18;;;9.10;;
44987;SDS011;35735;52.226;21.254;2023-10-13T03:32:53;12.27;;;8.85;;
44987;SDS011;35735;52.226;21.254;2023-10-13T03:37:54;14.00;;;9.07;;
44987;SDS011;35735;52.226;21.254;2023-10-13T03:42:55;12.05;;;8.07;;
44987;SDS011;35735;52.226;21.254;2023-10-13T03:47:57;11.25;;;7.70;;
44987;SDS011;35735;52.226;21.254;2023-10-13T03:52:58;11.77;;;8.60;;
44987;SDS011;35735;52.226;21.254;2023-10-13T03:57:58;9.27;;;7.45;;
44987;SDS011;35735;52.226;21.254;2023-10-13T04:02:59;12.05;;;8.43;;
44987;SDS011;35735;52.226;21.254;2023-10-13T04:08:03;16.90;;;11.00;;
44987;SDS011;35735;52.226;21.254;2023-10-13T04:13:07;17.25;;;12.07;;
44987;SDS011;35735;52.226;21.254;2023-10-13T04:18:07;20.77;;;13.23;;
44987;SDS011;35735;52.226;21.254;2023-10-13T04:23:08;17.80;;;10.98;;
44987;SDS011;35735;52.226;21.254;2023-10-13T04:28:12;23.48;;;14.57;;
44987;SDS011;35735;52.226;21.254;2023-10-13T04:33:14;19.12;;;12.45;;
44987;SDS011;35735;52.226;21.254;2023-10-13T04:38:14;27.17;;;16.48;;
44987;SDS011;35735;52.226;21.254;2023-10-13T04:43:15;27.10;;;16.20;;
44987;SDS011;35735;52.226;21.254;2023-10-13T04:48:15;20.90;;;12.15;;
44987;SDS011;35735;52.226;21.254;2023-10-13T04:53:17;19.50;;;11.95;;
44987;SDS011;35735;52.226;21.254;2023-10-13T04:58:18;23.75;;;14.20;;
44987;SDS011;35735;52.226;21.254;2023-10-13T05:03:19;23.38;;;14.20;;
44987;SDS011;35735;52.226;21.254;2023-10-13T05:08:19;22.70;;;13.98;;
44987;SDS011;35735;52.226;21.254;2023-10-13T05:13:20;25.30;;;12.93;;
44987;SDS011;35735;52.226;21.254;2023-10-13T05:18:20;23.05;;;12.27;;
44987;SDS011;35735;52.226;21.254;2023-10-13T05:23:21;18.20;;;10.48;;
44987;SDS011;35735;52.226;21.254;2023-10-13T05:28:21;16.67;;;10.93;;
44987;SDS011;35735;52.226;21.254;2023-10-13T05:33:22;17.50;;;10.60;;
44987;SDS011;35735;52.226;21.254;2023-10-13T05:38:23;16.83;;;10.05;;
44987;SDS011;35735;52.226;21.254;2023-10-13T05:43:23;17.33;;;9.75;;
44987;SDS011;35735;52.226;21.254;2023-10-13T05:48:24;16.48;;;9.38;;
44987;SDS011;35735;52.226;21.254;2023-10-13T05:53:24;18.95;;;11.27;;
44987;SDS011;35735;52.226;21.254;2023-10-13T05:58:25;28.42;;;17.17;;
44987;SDS011;35735;52.226;21.254;2023-10-13T06:03:25;28.70;;;16.05;;
44987;SDS011;35735;52.226;21.254;2023-10-13T06:08:26;26.00;;;15.05;;
44987;SDS011;35735;52.226;21.254;2023-10-13T06:13:27;23.02;;;13.30;;
44987;SDS011;35735;52.226;21.254;2023-10-13T06:18:28;21.33;;;11.85;;
44987;SDS011;35735;52.226;21.254;2023-10-13T06:23:28;16.48;;;10.68;;
44987;SDS011;35735;52.226;21.254;2023-10-13T06:28:29;16.08;;;10.07;;
44987;SDS011;35735;52.226;21.254;2023-10-13T06:33:29;17.35;;;11.73;;
44987;SDS011;35735;52.226;21.254;2023-10-13T06:38:30;21.00;;;12.13;;
44987;SDS011;35735;52.226;21.254;2023-10-13T06:43:31;16.58;;;10.57;;
44987;SDS011;35735;52.226;21.254;2023-10-13T06:48:35;17.05;;;10.40;;
44987;SDS011;35735;52.226;21.254;2023-10-13T06:53:36;15.98;;;9.88;;
44987;SDS011;35735;52.226;21.254;2023-10-13T06:58:37;19.70;;;10.13;;
44987;SDS011;35735;52.226;21.254;2023-10-13T07:03:37;33.17;;;23.02;;
44987;SDS011;35735;52.226;21.254;2023-10-13T07:08:38;36.40;;;24.42;;
44987;SDS011;35735;52.226;21.254;2023-10-13T07:13:38;17.90;;;11.07;;
44987;SDS011;35735;52.226;21.254;2023-10-13T07:18:39;16.08;;;10.85;;
44987;SDS011;35735;52.226;21.254;2023-10-13T07:23:39;15.43;;;10.63;;
44987;SDS011;35735;52.226;21.254;2023-10-13T07:28:40;21.23;;;14.35;;
44987;SDS011;35735;52.226;21.254;2023-10-13T07:33:41;18.15;;;11.38;;
44987;SDS011;35735;52.226;21.254;2023-10-13T07:38:45;18.73;;;10.55;;
44987;SDS011;35735;52.226;21.254;2023-10-13T07:43:46;14.87;;;10.23;;
44987;SDS011;35735;52.226;21.254;2023-10-13T07:48:46;17.40;;;11.43;;
44987;SDS011;35735;52.226;21.254;2023-10-13T07:53:47;17.00;;;10.80;;
44987;SDS011;35735;52.226;21.254;2023-10-13T07:58:47;17.85;;;11.15;;
44987;SDS011;35735;52.226;21.254;2023-10-13T08:03:48;15.98;;;10.80;;
44987;SDS011;35735;52.226;21.254;2023-10-13T08:08:48;18.65;;;11.70;;
44987;SDS011;35735;52.226;21.254;2023-10-13T08:13:49;21.75;;;14.48;;
44987;SDS011;35735;52.226;21.254;2023-10-13T08:18:50;29.48;;;19.33;;
44987;SDS011;35735;52.226;21.254;2023-10-13T08:23:51;24.65;;;15.75;;
44987;SDS011;35735;52.226;21.254;2023-10-13T08:28:52;13.45;;;8.88;;
44987;SDS011;35735;52.226;21.254;2023-10-13T08:33:52;13.30;;;7.25;;
44987;SDS011;35735;52.226;21.254;2023-10-13T08:38:54;13.52;;;6.07;;
44987;SDS011;35735;52.226;21.254;2023-10-13T08:43:55;16.08;;;5.70;;
44987;SDS011;35735;52.226;21.254;2023-10-13T08:49:02;11.80;;;5.87;;
44987;SDS011;35735;52.226;21.254;2023-10-13T08:54:04;9.82;;;4.60;;
44987;SDS011;35735;52.226;21.254;2023-10-13T08:59:05;12.63;;;5.35;;
44987;SDS011;35735;52.226;21.254;2023-10-13T09:04:07;10.63;;;4.65;;
44987;SDS011;35735;52.226;21.254;2023-10-13T09:09:09;12.40;;;6.62;;
44987;SDS011;35735;52.226;21.254;2023-10-13T09:14:13;17.35;;;6.43;;
44987;SDS011;35735;52.226;21.254;2023-10-13T09:19:14;12.40;;;4.60;;
44987;SDS011;35735;52.226;21.254;2023-10-13T09:24:15;12.35;;;5.43;;
44987;SDS011;35735;52.226;21.254;2023-10-13T09:29:16;17.73;;;5.22;;
44987;SDS011;35735;52.226;21.254;2023-10-13T09:34:21;14.13;;;5.82;;
44987;SDS011;35735;52.226;21.254;2023-10-13T09:39:25;13.35;;;6.20;;
44987;SDS011;35735;52.226;21.254;2023-10-13T09:44:26;18.40;;;6.10;;
44987;SDS011;35735;52.226;21.254;2023-10-13T09:49:27;17.25;;;6.60;;
44987;SDS011;35735;52.226;21.254;2023-10-13T09:54:34;14.63;;;6.47;;
44987;SDS011;35735;52.226;21.254;2023-10-13T09:59:43;19.98;;;6.90;;
44987;SDS011;35735;52.226;21.254;2023-10-13T10:04:51;17.12;;;7.10;;
44987;SDS011;35735;52.226;21.254;2023-10-13T10:09:55;13.43;;;6.40;;
44987;SDS011;35735;52.226;21.254;2023-10-13T10:20:33;17.62;;;11.10;;
44987;SDS011;35735;52.226;21.254;2023-10-13T10:25:36;17.98;;;6.20;;
44987;SDS011;35735;52.226;21.254;2023-10-13T10:30:37;12.35;;;6.15;;
44987;SDS011;35735;52.226;21.254;2023-10-13T10:35:39;14.43;;;6.62;;
44987;SDS011;35735;52.226;21.254;2023-10-13T10:40:54;13.27;;;6.97;;
44987;SDS011;35735;52.226;21.254;2023-10-13T10:45:57;13.73;;;6.45;;
44987;SDS011;35735;52.226;21.254;2023-10-13T10:50:58;12.25;;;5.93;;
44987;SDS011;35735;52.226;21.254;2023-10-13T10:56:05;14.93;;;6.50;;
44987;SDS011;35735;52.226;21.254;2023-10-13T11:01:11;14.13;;;8.45;;
44987;SDS011;35735;52.226;21.254;2023-10-13T11:06:12;22.87;;;16.23;;
44987;SDS011;35735;52.226;21.254;2023-10-13T11:11:13;15.90;;;8.30;;
44987;SDS011;35735;52.226;21.254;2023-10-13T11:16:19;15.13;;;7.53;;
44987;SDS011;35735;52.226;21.254;2023-10-13T11:21:21;15.20;;;6.78;;
44987;SDS011;35735;52.226;21.254;2023-10-13T11:26:21;12.82;;;7.57;;
44987;SDS011;35735;52.226;21.254;2023-10-13T11:31:36;20.42;;;11.70;;
44987;SDS011;35735;52.226;21.254;2023-10-13T11:36:36;17.08;;;7.78;;
44987;SDS011;35735;52.226;21.254;2023-10-13T11:41:37;15.70;;;7.65;;
44987;SDS011;35735;52.226;21.254;2023-10-13T11:46:37;16.50;;;7.15;;
44987;SDS011;35735;52.226;21.254;2023-10-13T11:51:38;12.37;;;6.93;;
44987;SDS011;35735;52.226;21.254;2023-10-13T11:56:48;17.25;;;7.25;;
44987;SDS011;35735;52.226;21.254;2023-10-13T12:01:50;15.88;;;6.20;;
44987;SDS011;35735;52.226;21.254;2023-10-13T12:06:51;12.80;;;6.65;;
44987;SDS011;35735;52.226;21.254;2023-10-13T12:11:52;15.13;;;9.38;;
44987;SDS011;35735;52.226;21.254;2023-10-13T12:16:52;13.32;;;6.93;;
44987;SDS011;35735;52.226;21.254;2023-10-13T12:21:53;14.38;;;6.90;;
44987;SDS011;35735;52.226;21.254;2023-10-13T12:26:54;11.75;;;6.40;;
44987;SDS011;35735;52.226;21.254;2023-10-13T12:31:55;10.48;;;6.22;;
44987;SDS011;35735;52.226;21.254;2023-10-13T12:36:56;13.77;;;7.75;;
44987;SDS011;35735;52.226;21.254;2023-10-13T12:41:57;12.55;;;6.87;;
44987;SDS011;35735;52.226;21.254;2023-10-13T12:46:57;13.45;;;5.93;;
44987;SDS011;35735;52.226;21.254;2023-10-13T12:51:58;14.23;;;6.37;;
44987;SDS011;35735;52.226;21.254;2023-10-13T12:56:58;13.85;;;6.85;;
44987;SDS011;35735;52.226;21.254;2023-10-13T13:01:59;17.08;;;7.03;;
44987;SDS011;35735;52.226;21.254;2023-10-13T13:07:00;19.02;;;10.43;;
44987;SDS011;35735;52.226;21.254;2023-10-13T13:12:00;19.25;;;8.27;;
44987;SDS011;35735;52.226;21.254;2023-10-13T13:17:01;16.98;;;11.73;;
44987;SDS011;35735;52.226;21.254;2023-10-13T13:22:02;14.32;;;8.60;;
44987;SDS011;35735;52.226;21.254;2023-10-13T13:27:03;12.23;;;7.05;;
44987;SDS011;35735;52.226;21.254;2023-10-13T13:32:03;17.62;;;8.55;;
44987;SDS011;35735;52.226;21.254;2023-10-13T13:37:04;10.85;;;7.10;;
44987;SDS011;35735;52.226;21.254;2023-10-13T13:42:05;10.68;;;6.60;;
44987;SDS011;35735;52.226;21.254;2023-10-13T13:47:05;14.30;;;7.35;;
44987;SDS011;35735;52.226;21.254;2023-10-13T13:52:06;13.48;;;7.57;;
44987;SDS011;35735;52.226;21.254;2023-10-13T13:57:07;15.25;;;7.62;;
44987;SDS011;35735;52.226;21.254;2023-10-13T14:02:08;15.77;;;8.60;;
44987;SDS011;35735;52.226;21.254;2023-10-13T14:07:08;15.63;;;8.50;;
44987;SDS011;35735;52.226;21.254;2023-10-13T14:12:09;17.17;;;8.60;;
44987;SDS011;35735;52.226;21.254;2023-10-13T14:17:10;14.82;;;8.80;;
44987;SDS011;35735;52.226;21.254;2023-10-13T14:22:10;15.48;;;10.00;;
44987;SDS011;35735;52.226;21.254;2023-10-13T14:27:11;11.73;;;7.65;;
44987;SDS011;35735;52.226;21.254;2023-10-13T14:32:12;15.30;;;8.63;;
44987;SDS011;35735;52.226;21.254;2023-10-13T14:37:14;14.70;;;8.55;;
44987;SDS011;35735;52.226;21.254;2023-10-13T14:42:14;13.10;;;8.35;;
44987;SDS011;35735;52.226;21.254;2023-10-13T14:47:15;12.57;;;7.82;;
44987;SDS011;35735;52.226;21.254;2023-10-13T14:52:15;19.15;;;13.02;;
44987;SDS011;35735;52.226;21.254;2023-10-13T14:57:16;16.08;;;8.45;;
44987;SDS011;35735;52.226;21.254;2023-10-13T15:02:16;16.23;;;8.80;;
44987;SDS011;35735;52.226;21.254;2023-10-13T15:07:17;14.73;;;8.57;;
44987;SDS011;35735;52.226;21.254;2023-10-13T15:12:17;14.13;;;9.30;;
44987;SDS011;35735;52.226;21.254;2023-10-13T15:17:18;16.02;;;8.02;;
44987;SDS011;35735;52.226;21.254;2023-10-13T15:22:18;14.68;;;9.95;;
44987;SDS011;35735;52.226;21.254;2023-10-13T15:27:19;18.58;;;9.15;;
44987;SDS011;35735;52.226;21.254;2023-10-13T15:32:20;18.20;;;9.13;;
44987;SDS011;35735;52.226;21.254;2023-10-13T15:37:20;14.55;;;9.57;;
44987;SDS011;35735;52.226;21.254;2023-10-13T15:42:21;16.12;;;9.90;;
44987;SDS011;35735;52.226;21.254;2023-10-13T15:47:21;16.83;;;10.30;;
44987;SDS011;35735;52.226;21.254;2023-10-13T15:52:22;13.98;;;9.30;;
44987;SDS011;35735;52.226;21.254;2023-10-13T15:57:22;15.38;;;9.50;;
44987;SDS011;35735;52.226;21.254;2023-10-13T16:02:23;16.92;;;9.48;;
44987;SDS011;35735;52.226;21.254;2023-10-13T16:07:24;15.30;;;10.30;;
44987;SDS011;35735;52.226;21.254;2023-10-13T16:12:24;16.55;;;10.38;;
44987;SDS011;35735;52.226;21.254;2023-10-13T16:17:25;20.73;;;12.65;;
44987;SDS011;35735;52.226;21.254;2023-10-13T16:22:25;17.67;;;9.93;;
44987;SDS011;35735;52.226;21.254;2023-10-13T16:27:26;18.52;;;11.60;;
44987;SDS011;35735;52.226;21.254;2023-10-13T16:32:26;15.95;;;10.50;;
44987;SDS011;35735;52.226;21.254;2023-10-13T16:37:27;18.87;;;11.98;;
44987;SDS011;35735;52.226;21.254;2023-10-13T16:42:27;16.12;;;10.90;;
44987;SDS011;35735;52.226;21.254;2023-10-13T16:47:28;15.73;;;10.90;;
44987;SDS011;35735;52.226;21.254;2023-10-13T16:52:28;16.80;;;12.23;;
44987;SDS011;35735;52.226;21.254;2023-10-13T16:57:29;23.62;;;12.63;;
44987;SDS011;35735;52.226;21.254;2023-10-13T17:02:29;19.90;;;12.90;;
44987;SDS011;35735;52.226;21.254;2023-10-13T17:07:30;19.05;;;12.70;;
44987;SDS011;35735;52.226;21.254;2023-10-13T17:12:31;16.30;;;10.48;;
44987;SDS011;35735;52.226;21.254;2023-10-13T17:17:31;21.42;;;13.10;;
44987;SDS011;35735;52.226;21.254;2023-10-13T17:22:32;16.30;;;11.07;;
44987;SDS011;35735;52.226;21.254;2023-10-13T17:27:32;15.93;;;10.40;;
44987;SDS011;35735;52.226;21.254;2023-10-13T17:32:33;15.55;;;11.10;;
44987;SDS011;35735;52.226;21.254;2023-10-13T17:37:33;15.48;;;10.23;;
44987;SDS011;35735;52.226;21.254;2023-10-13T17:42:34;19.08;;;11.30;;
44987;SDS011;35735;52.226;21.254;2023-10-13T17:47:37;19.92;;;11.63;;
44987;SDS011;35735;52.226;21.254;2023-10-13T17:52:38;17.45;;;12.07;;
44987;SDS011;35735;52.226;21.254;2023-10-13T17:57:39;18.52;;;12.82;;
44987;SDS011;35735;52.226;21.254;2023-10-13T18:02:40;17.90;;;12.68;;
44987;SDS011;35735;52.226;21.254;2023-10-13T18:07:42;19.10;;;13.43;;
44987;SDS011;35735;52.226;21.254;2023-10-13T18:12:42;16.40;;;11.82;;
44987;SDS011;35735;52.226;21.254;2023-10-13T18:17:44;17.70;;;11.90;;
44987;SDS011;35735;52.226;21.254;2023-10-13T18:22:44;15.07;;;11.43;;
44987;SDS011;35735;52.226;21.254;2023-10-13T18:27:45;16.90;;;11.43;;
44987;SDS011;35735;52.226;21.254;2023-10-13T18:32:47;17.20;;;11.68;;
44987;SDS011;35735;52.226;21.254;2023-10-13T18:37:48;19.05;;;11.70;;
44987;SDS011;35735;52.226;21.254;2023-10-13T18:42:48;17.92;;;11.90;;
44987;SDS011;35735;52.226;21.254;2023-10-13T18:47:49;13.88;;;11.00;;
44987;SDS011;35735;52.226;21.254;2023-10-13T18:52:50;18.05;;;12.15;;
44987;SDS011;35735;52.226;21.254;2023-10-13T18:57:51;14.60;;;11.70;;
44987;SDS011;35735;52.226;21.254;2023-10-13T19:02:51;17.37;;;11.40;;
44987;SDS011;35735;52.226;21.254;2023-10-13T19:07:52;20.33;;;12.57;;
44987;SDS011;35735;52.226;21.254;2023-10-13T19:12:52;14.57;;;11.82;;
44987;SDS011;35735;52.226;21.254;2023-10-13T19:17:53;14.23;;;11.20;;
44987;SDS011;35735;52.226;21.254;2023-10-13T19:22:53;16.75;;;11.80;;
44987;SDS011;35735;52.226;21.254;2023-10-13T19:27:54;15.57;;;11.48;;
44987;SDS011;35735;52.226;21.254;2023-10-13T19:32:54;16.77;;;11.35;;
44987;SDS011;35735;52.226;21.254;2023-10-13T19:37:55;16.15;;;10.68;;
44987;SDS011;35735;52.226;21.254;2023-10-13T19:42:56;19.20;;;10.90;;
44987;SDS011;35735;52.226;21.254;2023-10-13T19:47:56;14.93;;;11.35;;
44987;SDS011;35735;52.226;21.254;2023-10-13T19:52:57;16.77;;;10.90;;
44987;SDS011;35735;52.226;21.254;2023-10-13T19:57:57;15.48;;;10.98;;
44987;SDS011;35735;52.226;21.254;2023-10-13T20:02:58;15.43;;;10.82;;
44987;SDS011;35735;52.226;21.254;2023-10-13T20:07:58;14.18;;;10.52;;
44987;SDS011;35735;52.226;21.254;2023-10-13T20:12:59;16.65;;;11.30;;
44987;SDS011;35735;52.226;21.254;2023-10-13T20:17:59;14.70;;;9.57;;
44987;SDS011;35735;52.226;21.254;2023-10-13T20:23:00;14.90;;;10.30;;
44987;SDS011;35735;52.226;21.254;2023-10-13T20:28:00;13.23;;;9.75;;
44987;SDS011;35735;52.226;21.254;2023-10-13T20:33:02;14.05;;;9.43;;
44987;SDS011;35735;52.226;21.254;2023-10-13T20:38:03;12.90;;;9.07;;
44987;SDS011;35735;52.226;21.254;2023-10-13T20:43:04;14.10;;;9.27;;
44987;SDS011;35735;52.226;21.254;2023-10-13T20:48:04;13.10;;;8.02;;
44987;SDS011;35735;52.226;21.254;2023-10-13T20:53:05;14.43;;;9.07;;
44987;SDS011;35735;52.226;21.254;2023-10-13T20:58:06;14.02;;;9.18;;
44987;SDS011;35735;52.226;21.254;2023-10-13T21:03:06;10.75;;;8.35;;
44987;SDS011;35735;52.226;21.254;2023-10-13T21:08:07;13.00;;;9.10;;
44987;SDS011;35735;52.226;21.254;2023-10-13T21:13:08;12.00;;;8.23;;
44987;SDS011;35735;52.226;21.254;2023-10-13T21:18:08;11.93;;;8.55;;
44987;SDS011;35735;52.226;21.254;2023-10-13T21:23:09;13.15;;;8.50;;
44987;SDS011;35735;52.226;21.254;2023-10-13T21:28:09;13.98;;;8.82;;
44987;SDS011;35735;52.226;21.254;2023-10-13T21:33:10;11.85;;;9.07;;
44987;SDS011;35735;52.226;21.254;2023-10-13T21:38:11;14.68;;;8.10;;
44987;SDS011;35735;52.226;21.254;2023-10-13T21:43:11;12.48;;;7.97;;
44987;SDS011;35735;52.226;21.254;2023-10-13T21:48:12;12.45;;;8.38;;
44987;SDS011;35735;52.226;21.254;2023-10-13T21:53:12;10.98;;;8.23;;
44987;SDS011;35735;52.226;21.254;2023-10-13T21:58:13;10.35;;;7.95;;
44987;SDS011;35735;52.226;21.254;2023-10-13T22:03:13;12.05;;;8.63;;
44987;SDS011;35735;52.226;21.254;2023-10-13T22:08:14;11.07;;;7.85;;
44987;SDS011;35735;52.226;21.254;2023-10-13T22:13:14;9.55;;;7.40;;
44987;SDS011;35735;52.226;21.254;2023-10-13T22:18:15;11.02;;;7.72;;
44987;SDS011;35735;52.226;21.254;2023-10-13T22:23:15;11.75;;;8.02;;
44987;SDS011;35735;52.226;21.254;2023-10-13T22:28:16;10.13;;;7.10;;
44987;SDS011;35735;52.226;21.254;2023-10-13T22:33:17;11.77;;;7.62;;
44987;SDS011;35735;52.226;21.254;2023-10-13T22:38:17;9.70;;;7.47;;
44987;SDS011;35735;52.226;21.254;2023-10-13T22:43:18;11.20;;;7.45;;
44987;SDS011;35735;52.226;21.254;2023-10-13T22:48:18;13.68;;;7.72;;
44987;SDS011;35735;52.226;21.254;2023-10-13T22:53:19;11.23;;;8.00;;
44987;SDS011;35735;52.226;21.254;2023-10-13T22:58:19;14.38;;;7.80;;
44987;SDS011;35735;52.226;21.254;2023-10-13T23:03:21;12.15;;;7.60;;
44987;SDS011;35735;52.226;21.254;2023-10-13T23:08:23;13.38;;;7.82;;
44987;SDS011;35735;52.226;21.254;2023-10-13T23:13:25;10.93;;;7.78;;
44987;SDS011;35735;52.226;21.254;2023-10-13T23:18:26;14.23;;;8.85;;
44987;SDS011;35735;52.226;21.254;2023-10-13T23:23:26;12.65;;;7.90;;
44987;SDS011;35735;52.226;21.254;2023-10-13T23:28:27;12.05;;;8.07;;
44987;SDS011;35735;52.226;21.254;2023-10-13T23:33:27;12.93;;;7.47;;
44987;SDS011;35735;52.226;21.254;2023-10-13T23:38:28;10.63;;;7.30;;
44987;SDS011;35735;52.226;21.254;2023-10-13T23:43:29;12.45;;;7.72;;
44987;SDS011;35735;52.226;21.254;2023-10-13T23:48:29;12.50;;;7.45;;
44987;SDS011;35735;52.226;21.254;2023-10-13T23:53:35;13.85;;;7.87;;
44987;SDS011;35735;52.226;21.254;2023-10-13T23:58:37;12.27;;;7.40;;
